KDDC/DDC METAR and TAF weather

Enter ICAO airport designator
Station Type Date Time Source
KDDC METAR 2022/01/23 11:52 UTC NOAA

KDDC 231152Z AUTO 31011KT 10SM CLR M01/M07 A3017 RMK AO2 SLP228 T10061067 10011 21022 51001 TSNO


Station Type Date Time Source
KDDC Decoded METAR 2022/01/23 11:52 UTC NOAA

DODGE CITY REGIONAL AIRPORT, KS, United States (KDDC) 37-46N 99-58W 789M
Jan 23, 2022 - 06:52 AM EST / 2022.01.23 1152 UTC
Wind: from the NW (310 degrees) at 13 MPH (11 KT):0
Visibility: 10 mile(s):0
Sky conditions: clear
Temperature: 30.9 F (-0.6 C)
Windchill: 21 F (-6 C):1
Dew Point: 19.9 F (-6.7 C)
Relative Humidity: 63%
Pressure (altimeter): 30.17 in. Hg (1021 hPa)
Pressure tendency: 0.00 inches (0.1 hPa) higher than three hours ago
ob: KDDC 231152Z AUTO 31011KT 10SM CLR M01/M07 A3017 RMK AO2 SLP228 T10061067 10011 21022 51001 TSNO
cycle: 12

Station Type Date Time Source
KDDC TAF 2022/01/23 12:27 UTC NOAA

TAF KDDC 231124Z 2312/2412 30009KT P6SM SKC

Example: see airport list